sensor_id;sensor_type;location;lat;lon;timestamp;pressure;altitude;pressure_sealevel;temperature
70831;BMP180;58451;51.550;7.208;2023-02-15T00:01:26;102141.00;;;1.10
70831;BMP180;58451;51.550;7.208;2023-02-15T00:02:58;102136.00;;;1.10
70831;BMP180;58451;51.550;7.208;2023-02-15T00:04:30;102139.60;;;1.10
70831;BMP180;58451;51.550;7.208;2023-02-15T00:06:20;102138.40;;;1.02
70831;BMP180;58451;51.550;7.208;2023-02-15T00:07:51;102138.40;;;1.02
70831;BMP180;58451;51.550;7.208;2023-02-15T00:09:23;102140.40;;;1.02
70831;BMP180;58451;51.550;7.208;2023-02-15T00:11:11;102133.40;;;1.00
70831;BMP180;58451;51.550;7.208;2023-02-15T00:12:43;102134.80;;;1.00
70831;BMP180;58451;51.550;7.208;2023-02-15T00:14:22;102131.00;;;1.00
70831;BMP180;58451;51.550;7.208;2023-02-15T00:15:54;102129.40;;;1.00
70831;BMP180;58451;51.550;7.208;2023-02-15T00:17:29;102125.00;;;1.00
70831;BMP180;58451;51.550;7.208;2023-02-15T00:19:02;102120.00;;;0.96
70831;BMP180;58451;51.550;7.208;2023-02-15T00:20:34;102113.80;;;0.90
70831;BMP180;58451;51.550;7.208;2023-02-15T00:22:07;102116.40;;;0.90
70831;BMP180;58451;51.550;7.208;2023-02-15T00:23:38;102113.20;;;0.90
70831;BMP180;58451;51.550;7.208;2023-02-15T00:25:10;102115.00;;;0.90
70831;BMP180;58451;51.550;7.208;2023-02-15T00:26:43;102114.00;;;0.90
70831;BMP180;58451;51.550;7.208;2023-02-15T00:28:15;102117.40;;;0.90
70831;BMP180;58451;51.550;7.208;2023-02-15T00:29:47;102110.80;;;0.86
70831;BMP180;58451;51.550;7.208;2023-02-15T00:31:20;102115.40;;;0.80
70831;BMP180;58451;51.550;7.208;2023-02-15T00:32:52;102109.40;;;0.80
70831;BMP180;58451;51.550;7.208;2023-02-15T00:34:26;102106.60;;;0.80
70831;BMP180;58451;51.550;7.208;2023-02-15T00:36:02;102107.80;;;0.74
70831;BMP180;58451;51.550;7.208;2023-02-15T00:37:34;102109.20;;;0.70
70831;BMP180;58451;51.550;7.208;2023-02-15T00:39:07;102112.40;;;0.70
70831;BMP180;58451;51.550;7.208;2023-02-15T00:40:39;102105.00;;;0.70
70831;BMP180;58451;51.550;7.208;2023-02-15T00:42:11;102112.60;;;0.70
70831;BMP180;58451;51.550;7.208;2023-02-15T00:43:43;102110.00;;;0.64
70831;BMP180;58451;51.550;7.208;2023-02-15T00:45:14;102116.20;;;0.60
70831;BMP180;58451;51.550;7.208;2023-02-15T00:46:49;102113.20;;;0.60
70831;BMP180;58451;51.550;7.208;2023-02-15T00:48:22;102115.40;;;0.60
70831;BMP180;58451;51.550;7.208;2023-02-15T00:49:54;102116.60;;;0.58
70831;BMP180;58451;51.550;7.208;2023-02-15T00:51:26;102114.40;;;0.50
70831;BMP180;58451;51.550;7.208;2023-02-15T00:52:58;102117.00;;;0.50
70831;BMP180;58451;51.550;7.208;2023-02-15T00:54:30;102115.40;;;0.50
70831;BMP180;58451;51.550;7.208;2023-02-15T00:56:02;102117.60;;;0.50
70831;BMP180;58451;51.550;7.208;2023-02-15T00:57:37;102110.80;;;0.50
70831;BMP180;58451;51.550;7.208;2023-02-15T00:59:09;102113.40;;;0.48
70831;BMP180;58451;51.550;7.208;2023-02-15T01:00:44;102120.40;;;0.40
70831;BMP180;58451;51.550;7.208;2023-02-15T01:02:18;102115.40;;;0.40
70831;BMP180;58451;51.550;7.208;2023-02-15T01:03:53;102113.80;;;0.40
70831;BMP180;58451;51.550;7.208;2023-02-15T01:05:25;102113.80;;;0.40
70831;BMP180;58451;51.550;7.208;2023-02-15T01:06:57;102108.40;;;0.32
70831;BMP180;58451;51.550;7.208;2023-02-15T01:08:29;102107.40;;;0.30
70831;BMP180;58451;51.550;7.208;2023-02-15T01:10:01;102110.80;;;0.30
70831;BMP180;58451;51.550;7.208;2023-02-15T01:11:33;102107.80;;;0.30
70831;BMP180;58451;51.550;7.208;2023-02-15T01:13:05;102111.80;;;0.30
70831;BMP180;58451;51.550;7.208;2023-02-15T01:14:37;102107.00;;;0.26
70831;BMP180;58451;51.550;7.208;2023-02-15T01:16:09;102105.20;;;0.20
70831;BMP180;58451;51.550;7.208;2023-02-15T01:17:42;102103.40;;;0.20
70831;BMP180;58451;51.550;7.208;2023-02-15T01:19:15;102103.20;;;0.20
70831;BMP180;58451;51.550;7.208;2023-02-15T01:20:47;102102.40;;;0.20
70831;BMP180;58451;51.550;7.208;2023-02-15T01:22:19;102096.60;;;0.18
70831;BMP180;58451;51.550;7.208;2023-02-15T01:23:51;102101.80;;;0.16
70831;BMP180;58451;51.550;7.208;2023-02-15T01:25:24;102094.40;;;0.10
70831;BMP180;58451;51.550;7.208;2023-02-15T01:26:55;102095.60;;;0.10
70831;BMP180;58451;51.550;7.208;2023-02-15T01:28:27;102090.60;;;0.10
70831;BMP180;58451;51.550;7.208;2023-02-15T01:29:59;102087.40;;;0.10
70831;BMP180;58451;51.550;7.208;2023-02-15T01:31:31;102090.80;;;0.10
70831;BMP180;58451;51.550;7.208;2023-02-15T01:33:03;102089.80;;;0.10
70831;BMP180;58451;51.550;7.208;2023-02-15T01:34:35;102086.40;;;0.08
70831;BMP180;58451;51.550;7.208;2023-02-15T01:36:07;102089.40;;;0.04
70831;BMP180;58451;51.550;7.208;2023-02-15T01:37:39;102087.00;;;0.00
70831;BMP180;58451;51.550;7.208;2023-02-15T01:39:10;102083.20;;;0.00
70831;BMP180;58451;51.550;7.208;2023-02-15T01:40:42;102084.20;;;0.00
70831;BMP180;58451;51.550;7.208;2023-02-15T01:42:22;102084.80;;;0.00
70831;BMP180;58451;51.550;7.208;2023-02-15T01:43:59;102082.60;;;-0.04
70831;BMP180;58451;51.550;7.208;2023-02-15T01:45:32;102077.20;;;-0.10
70831;BMP180;58451;51.550;7.208;2023-02-15T01:47:03;102081.00;;;-0.10
70831;BMP180;58451;51.550;7.208;2023-02-15T01:48:52;102079.60;;;-0.10
70831;BMP180;58451;51.550;7.208;2023-02-15T01:50:41;102077.40;;;-0.10
70831;BMP180;58451;51.550;7.208;2023-02-15T01:52:17;102070.40;;;-0.12
70831;BMP180;58451;51.550;7.208;2023-02-15T01:54:01;102072.80;;;-0.20
70831;BMP180;58451;51.550;7.208;2023-02-15T01:55:40;102074.20;;;-0.20
70831;BMP180;58451;51.550;7.208;2023-02-15T01:57:18;102067.00;;;-0.20
70831;BMP180;58451;51.550;7.208;2023-02-15T01:58:55;102065.80;;;-0.20
70831;BMP180;58451;51.550;7.208;2023-02-15T02:00:29;102064.80;;;-0.20
70831;BMP180;58451;51.550;7.208;2023-02-15T02:02:03;102062.40;;;-0.20
70831;BMP180;58451;51.550;7.208;2023-02-15T02:05:18;102061.40;;;-0.30
70831;BMP180;58451;51.550;7.208;2023-02-15T02:06:51;102056.00;;;-0.30
70831;BMP180;58451;51.550;7.208;2023-02-15T02:08:24;102055.00;;;-0.30
70831;BMP180;58451;51.550;7.208;2023-02-15T02:09:57;102057.00;;;-0.30
70831;BMP180;58451;51.550;7.208;2023-02-15T02:11:34;102054.80;;;-0.30
70831;BMP180;58451;51.550;7.208;2023-02-15T02:13:06;102054.00;;;-0.30
70831;BMP180;58451;51.550;7.208;2023-02-15T02:14:41;102056.60;;;-0.40
70831;BMP180;58451;51.550;7.208;2023-02-15T02:16:37;102059.20;;;-0.40
70831;BMP180;58451;51.550;7.208;2023-02-15T02:31:28;102030.80;;;-0.50
70831;BMP180;58451;51.550;7.208;2023-02-15T02:37:37;102023.60;;;-0.60
70831;BMP180;58451;51.550;7.208;2023-02-15T02:39:55;102025.20;;;-0.60
70831;BMP180;58451;51.550;7.208;2023-02-15T02:41:53;102023.20;;;-0.60
70831;BMP180;58451;51.550;7.208;2023-02-15T02:45:24;102033.80;;;-0.64
70831;BMP180;58451;51.550;7.208;2023-02-15T02:48:41;102019.40;;;-0.70
70831;BMP180;58451;51.550;7.208;2023-02-15T02:50:21;102021.40;;;-0.70
70831;BMP180;58451;51.550;7.208;2023-02-15T02:54:08;102019.60;;;-0.70
70831;BMP180;58451;51.550;7.208;2023-02-15T02:57:25;102013.00;;;-0.70
70831;BMP180;58451;51.550;7.208;2023-02-15T02:59:11;102007.20;;;-0.72
70831;BMP180;58451;51.550;7.208;2023-02-15T03:00:59;102011.40;;;-0.72
70831;BMP180;58451;51.550;7.208;2023-02-15T03:02:43;102009.00;;;-0.80
70831;BMP180;58451;51.550;7.208;2023-02-15T03:04:31;102002.20;;;-0.80
70831;BMP180;58451;51.550;7.208;2023-02-15T03:06:15;102001.20;;;-0.80
70831;BMP180;58451;51.550;7.208;2023-02-15T03:07:52;102001.40;;;-0.80
70831;BMP180;58451;51.550;7.208;2023-02-15T03:09:33;102002.40;;;-0.80
70831;BMP180;58451;51.550;7.208;2023-02-15T03:11:16;101993.60;;;-0.80
70831;BMP180;58451;51.550;7.208;2023-02-15T03:12:49;101994.80;;;-0.80
70831;BMP180;58451;51.550;7.208;2023-02-15T03:14:21;101990.60;;;-0.80
70831;BMP180;58451;51.550;7.208;2023-02-15T03:15:54;101990.40;;;-0.80
70831;BMP180;58451;51.550;7.208;2023-02-15T03:17:53;101981.40;;;-0.82
70831;BMP180;58451;51.550;7.208;2023-02-15T03:19:30;101985.00;;;-0.86
70831;BMP180;58451;51.550;7.208;2023-02-15T03:21:05;101987.20;;;-0.86
70831;BMP180;58451;51.550;7.208;2023-02-15T03:22:48;101992.40;;;-0.90
70831;BMP180;58451;51.550;7.208;2023-02-15T03:24:28;101990.20;;;-0.90
70831;BMP180;58451;51.550;7.208;2023-02-15T03:26:07;101988.00;;;-0.90
70831;BMP180;58451;51.550;7.208;2023-02-15T03:28:06;101989.20;;;-0.90
70831;BMP180;58451;51.550;7.208;2023-02-15T03:29:39;101995.60;;;-0.90
70831;BMP180;58451;51.550;7.208;2023-02-15T03:31:14;101994.80;;;-0.90
70831;BMP180;58451;51.550;7.208;2023-02-15T03:32:49;101992.40;;;-0.90
70831;BMP180;58451;51.550;7.208;2023-02-15T03:34:22;101985.60;;;-0.92
70831;BMP180;58451;51.550;7.208;2023-02-15T03:36:18;101994.20;;;-0.96
70831;BMP180;58451;51.550;7.208;2023-02-15T03:37:59;101990.00;;;-0.94
70831;BMP180;58451;51.550;7.208;2023-02-15T03:41:13;101986.40;;;-1.00
70831;BMP180;58451;51.550;7.208;2023-02-15T03:42:59;101982.20;;;-1.00
70831;BMP180;58451;51.550;7.208;2023-02-15T03:44:43;101984.60;;;-1.00
70831;BMP180;58451;51.550;7.208;2023-02-15T03:46:45;101982.40;;;-1.00
70831;BMP180;58451;51.550;7.208;2023-02-15T03:48:36;101983.40;;;-1.00
70831;BMP180;58451;51.550;7.208;2023-02-15T03:50:17;101984.40;;;-1.00
70831;BMP180;58451;51.550;7.208;2023-02-15T03:52:11;101982.80;;;-1.00
70831;BMP180;58451;51.550;7.208;2023-02-15T03:53:48;101977.80;;;-1.08
70831;BMP180;58451;51.550;7.208;2023-02-15T03:55:20;101975.00;;;-1.10
70831;BMP180;58451;51.550;7.208;2023-02-15T03:56:54;101977.20;;;-1.10
70831;BMP180;58451;51.550;7.208;2023-02-15T03:58:46;101978.00;;;-1.10
70831;BMP180;58451;51.550;7.208;2023-02-15T04:00:47;101974.80;;;-1.10
70831;BMP180;58451;51.550;7.208;2023-02-15T04:04:37;101974.20;;;-1.10
70831;BMP180;58451;51.550;7.208;2023-02-15T04:06:09;101970.00;;;-1.10
70831;BMP180;58451;51.550;7.208;2023-02-15T04:07:41;101973.00;;;-1.10
70831;BMP180;58451;51.550;7.208;2023-02-15T04:09:13;101974.60;;;-1.10
70831;BMP180;58451;51.550;7.208;2023-02-15T04:11:03;101978.00;;;-1.14
70831;BMP180;58451;51.550;7.208;2023-02-15T04:12:35;101974.40;;;-1.18
70831;BMP180;58451;51.550;7.208;2023-02-15T04:14:07;101977.00;;;-1.20
70831;BMP180;58451;51.550;7.208;2023-02-15T04:15:57;101973.60;;;-1.20
70831;BMP180;58451;51.550;7.208;2023-02-15T04:17:37;101982.20;;;-1.20
70831;BMP180;58451;51.550;7.208;2023-02-15T04:19:10;101982.40;;;-1.20
70831;BMP180;58451;51.550;7.208;2023-02-15T04:21:02;101976.80;;;-1.20
70831;BMP180;58451;51.550;7.208;2023-02-15T04:22:52;101975.20;;;-1.20
70831;BMP180;58451;51.550;7.208;2023-02-15T04:24:43;101974.40;;;-1.20
70831;BMP180;58451;51.550;7.208;2023-02-15T04:26:33;101971.00;;;-1.20
70831;BMP180;58451;51.550;7.208;2023-02-15T04:28:05;101974.80;;;-1.20
70831;BMP180;58451;51.550;7.208;2023-02-15T04:29:38;101973.80;;;-1.20
70831;BMP180;58451;51.550;7.208;2023-02-15T04:31:10;101970.00;;;-1.20
70831;BMP180;58451;51.550;7.208;2023-02-15T04:32:42;101970.40;;;-1.20
70831;BMP180;58451;51.550;7.208;2023-02-15T04:34:14;101969.20;;;-1.20
70831;BMP180;58451;51.550;7.208;2023-02-15T04:35:46;101971.00;;;-1.20
70831;BMP180;58451;51.550;7.208;2023-02-15T04:37:18;101973.40;;;-1.20
70831;BMP180;58451;51.550;7.208;2023-02-15T04:38:50;101971.40;;;-1.20
70831;BMP180;58451;51.550;7.208;2023-02-15T04:40:21;101972.20;;;-1.20
70831;BMP180;58451;51.550;7.208;2023-02-15T04:41:53;101971.40;;;-1.20
70831;BMP180;58451;51.550;7.208;2023-02-15T04:43:25;101973.60;;;-1.20
70831;BMP180;58451;51.550;7.208;2023-02-15T04:44:57;101975.00;;;-1.20
70831;BMP180;58451;51.550;7.208;2023-02-15T04:46:28;101971.60;;;-1.20
70831;BMP180;58451;51.550;7.208;2023-02-15T04:48:00;101968.60;;;-1.20
70831;BMP180;58451;51.550;7.208;2023-02-15T04:49:32;101965.60;;;-1.20
70831;BMP180;58451;51.550;7.208;2023-02-15T04:51:07;101969.20;;;-1.20
70831;BMP180;58451;51.550;7.208;2023-02-15T04:52:39;101963.00;;;-1.20
70831;BMP180;58451;51.550;7.208;2023-02-15T04:54:11;101963.80;;;-1.20
70831;BMP180;58451;51.550;7.208;2023-02-15T04:55:43;101966.60;;;-1.20
70831;BMP180;58451;51.550;7.208;2023-02-15T04:57:15;101964.60;;;-1.22
70831;BMP180;58451;51.550;7.208;2023-02-15T04:58:47;101965.60;;;-1.22
70831;BMP180;58451;51.550;7.208;2023-02-15T05:00:19;101964.20;;;-1.22
70831;BMP180;58451;51.550;7.208;2023-02-15T05:01:51;101961.80;;;-1.30
70831;BMP180;58451;51.550;7.208;2023-02-15T05:03:24;101959.40;;;-1.30
70831;BMP180;58451;51.550;7.208;2023-02-15T05:04:56;101955.80;;;-1.30
70831;BMP180;58451;51.550;7.208;2023-02-15T05:06:28;101956.00;;;-1.30
70831;BMP180;58451;51.550;7.208;2023-02-15T05:08:00;101962.20;;;-1.30
70831;BMP180;58451;51.550;7.208;2023-02-15T05:09:32;101958.80;;;-1.30
70831;BMP180;58451;51.550;7.208;2023-02-15T05:11:04;101959.20;;;-1.30
70831;BMP180;58451;51.550;7.208;2023-02-15T05:12:35;101966.40;;;-1.30
70831;BMP180;58451;51.550;7.208;2023-02-15T05:14:08;101961.20;;;-1.30
70831;BMP180;58451;51.550;7.208;2023-02-15T05:15:40;101952.80;;;-1.30
70831;BMP180;58451;51.550;7.208;2023-02-15T05:17:15;101958.80;;;-1.30
70831;BMP180;58451;51.550;7.208;2023-02-15T05:18:47;101953.60;;;-1.30
70831;BMP180;58451;51.550;7.208;2023-02-15T05:20:18;101955.80;;;-1.30
70831;BMP180;58451;51.550;7.208;2023-02-15T05:21:50;101955.40;;;-1.30
70831;BMP180;58451;51.550;7.208;2023-02-15T05:23:22;101947.40;;;-1.30
70831;BMP180;58451;51.550;7.208;2023-02-15T05:24:54;101944.20;;;-1.30
70831;BMP180;58451;51.550;7.208;2023-02-15T05:26:44;101942.80;;;-1.30
70831;BMP180;58451;51.550;7.208;2023-02-15T05:28:37;101941.40;;;-1.40
70831;BMP180;58451;51.550;7.208;2023-02-15T05:30:09;101937.60;;;-1.40
70831;BMP180;58451;51.550;7.208;2023-02-15T05:31:43;101932.60;;;-1.40
70831;BMP180;58451;51.550;7.208;2023-02-15T05:33:19;101929.20;;;-1.40
70831;BMP180;58451;51.550;7.208;2023-02-15T05:34:51;101927.40;;;-1.40
70831;BMP180;58451;51.550;7.208;2023-02-15T05:36:23;101929.40;;;-1.40
70831;BMP180;58451;51.550;7.208;2023-02-15T05:37:55;101923.00;;;-1.40
70831;BMP180;58451;51.550;7.208;2023-02-15T05:39:27;101928.20;;;-1.40
70831;BMP180;58451;51.550;7.208;2023-02-15T05:40:59;101929.40;;;-1.40
70831;BMP180;58451;51.550;7.208;2023-02-15T05:42:31;101921.80;;;-1.40
70831;BMP180;58451;51.550;7.208;2023-02-15T05:44:03;101923.60;;;-1.40
70831;BMP180;58451;51.550;7.208;2023-02-15T05:45:35;101927.00;;;-1.40
70831;BMP180;58451;51.550;7.208;2023-02-15T05:47:06;101928.80;;;-1.40
70831;BMP180;58451;51.550;7.208;2023-02-15T05:48:39;101925.40;;;-1.40
70831;BMP180;58451;51.550;7.208;2023-02-15T05:50:10;101920.60;;;-1.40
70831;BMP180;58451;51.550;7.208;2023-02-15T05:51:46;101925.40;;;-1.40
70831;BMP180;58451;51.550;7.208;2023-02-15T05:53:18;101918.60;;;-1.40
70831;BMP180;58451;51.550;7.208;2023-02-15T05:54:49;101921.20;;;-1.40
70831;BMP180;58451;51.550;7.208;2023-02-15T05:56:21;101917.80;;;-1.40
70831;BMP180;58451;51.550;7.208;2023-02-15T05:57:53;101914.80;;;-1.40
70831;BMP180;58451;51.550;7.208;2023-02-15T05:59:26;101913.00;;;-1.40
70831;BMP180;58451;51.550;7.208;2023-02-15T06:00:57;101914.00;;;-1.40
70831;BMP180;58451;51.550;7.208;2023-02-15T06:02:35;101914.40;;;-1.40
70831;BMP180;58451;51.550;7.208;2023-02-15T06:04:07;101914.60;;;-1.40
70831;BMP180;58451;51.550;7.208;2023-02-15T06:05:42;101916.60;;;-1.40
70831;BMP180;58451;51.550;7.208;2023-02-15T06:07:15;101919.40;;;-1.40
70831;BMP180;58451;51.550;7.208;2023-02-15T06:08:49;101919.20;;;-1.40
70831;BMP180;58451;51.550;7.208;2023-02-15T06:10:21;101927.40;;;-1.40
70831;BMP180;58451;51.550;7.208;2023-02-15T06:11:52;101926.80;;;-1.42
70831;BMP180;58451;51.550;7.208;2023-02-15T06:13:24;101924.40;;;-1.40
70831;BMP180;58451;51.550;7.208;2023-02-15T06:14:56;101927.20;;;-1.42
70831;BMP180;58451;51.550;7.208;2023-02-15T06:16:27;101927.20;;;-1.46
70831;BMP180;58451;51.550;7.208;2023-02-15T06:17:59;101929.00;;;-1.48
70831;BMP180;58451;51.550;7.208;2023-02-15T06:19:31;101926.00;;;-1.50
70831;BMP180;58451;51.550;7.208;2023-02-15T06:21:03;101927.00;;;-1.40
70831;BMP180;58451;51.550;7.208;2023-02-15T06:22:35;101922.00;;;-1.48
70831;BMP180;58451;51.550;7.208;2023-02-15T06:24:08;101927.60;;;-1.50
70831;BMP180;58451;51.550;7.208;2023-02-15T06:25:41;101924.00;;;-1.50
70831;BMP180;58451;51.550;7.208;2023-02-15T06:27:23;101922.20;;;-1.50
70831;BMP180;58451;51.550;7.208;2023-02-15T06:28:55;101921.40;;;-1.50
70831;BMP180;58451;51.550;7.208;2023-02-15T06:30:27;101917.80;;;-1.50
70831;BMP180;58451;51.550;7.208;2023-02-15T06:31:59;101915.40;;;-1.50
70831;BMP180;58451;51.550;7.208;2023-02-15T06:33:32;101917.40;;;-1.50
70831;BMP180;58451;51.550;7.208;2023-02-15T06:35:05;101922.60;;;-1.50
70831;BMP180;58451;51.550;7.208;2023-02-15T06:36:38;101922.80;;;-1.50
70831;BMP180;58451;51.550;7.208;2023-02-15T06:38:10;101926.20;;;-1.50
70831;BMP180;58451;51.550;7.208;2023-02-15T06:39:41;101929.00;;;-1.50
70831;BMP180;58451;51.550;7.208;2023-02-15T06:41:14;101925.20;;;-1.50
70831;BMP180;58451;51.550;7.208;2023-02-15T06:42:46;101932.00;;;-1.50
70831;BMP180;58451;51.550;7.208;2023-02-15T06:44:18;101929.20;;;-1.48
70831;BMP180;58451;51.550;7.208;2023-02-15T06:45:50;101933.20;;;-1.42
70831;BMP180;58451;51.550;7.208;2023-02-15T06:47:21;101931.80;;;-1.42
70831;BMP180;58451;51.550;7.208;2023-02-15T06:48:53;101930.40;;;-1.46
70831;BMP180;58451;51.550;7.208;2023-02-15T06:50:25;101934.60;;;-1.50
70831;BMP180;58451;51.550;7.208;2023-02-15T06:51:57;101932.80;;;-1.48
70831;BMP180;58451;51.550;7.208;2023-02-15T06:53:28;101936.00;;;-1.44
70831;BMP180;58451;51.550;7.208;2023-02-15T06:55:00;101937.00;;;-1.40
70831;BMP180;58451;51.550;7.208;2023-02-15T06:56:32;101931.60;;;-1.40
70831;BMP180;58451;51.550;7.208;2023-02-15T06:58:04;101930.00;;;-1.40
70831;BMP180;58451;51.550;7.208;2023-02-15T06:59:36;101924.00;;;-1.40
70831;BMP180;58451;51.550;7.208;2023-02-15T07:01:09;101925.20;;;-1.40
70831;BMP180;58451;51.550;7.208;2023-02-15T07:02:41;101929.60;;;-1.40
70831;BMP180;58451;51.550;7.208;2023-02-15T07:04:12;101926.80;;;-1.40
70831;BMP180;58451;51.550;7.208;2023-02-15T07:05:44;101928.00;;;-1.34
70831;BMP180;58451;51.550;7.208;2023-02-15T07:07:17;101924.80;;;-1.30
70831;BMP180;58451;51.550;7.208;2023-02-15T07:08:48;101925.80;;;-1.30
70831;BMP180;58451;51.550;7.208;2023-02-15T07:10:21;101924.60;;;-1.30
70831;BMP180;58451;51.550;7.208;2023-02-15T07:11:52;101925.40;;;-1.30
70831;BMP180;58451;51.550;7.208;2023-02-15T07:13:43;101926.60;;;-1.30
70831;BMP180;58451;51.550;7.208;2023-02-15T07:15:17;101926.20;;;-1.22
70831;BMP180;58451;51.550;7.208;2023-02-15T07:16:50;101927.20;;;-1.20
70831;BMP180;58451;51.550;7.208;2023-02-15T07:18:22;101928.40;;;-1.20
70831;BMP180;58451;51.550;7.208;2023-02-15T07:19:54;101925.20;;;-1.20
70831;BMP180;58451;51.550;7.208;2023-02-15T07:21:26;101926.80;;;-1.10
70831;BMP180;58451;51.550;7.208;2023-02-15T07:22:58;101927.20;;;-1.10
70831;BMP180;58451;51.550;7.208;2023-02-15T07:24:30;101922.20;;;-1.04
70831;BMP180;58451;51.550;7.208;2023-02-15T07:26:04;101923.00;;;-1.00
70831;BMP180;58451;51.550;7.208;2023-02-15T07:27:37;101921.40;;;-1.00
70831;BMP180;58451;51.550;7.208;2023-02-15T07:29:09;101918.80;;;-0.98
70831;BMP180;58451;51.550;7.208;2023-02-15T07:30:40;101915.00;;;-0.90
70831;BMP180;58451;51.550;7.208;2023-02-15T07:32:12;101920.40;;;-0.88
70831;BMP180;58451;51.550;7.208;2023-02-15T07:33:44;101919.20;;;-0.80
70831;BMP180;58451;51.550;7.208;2023-02-15T07:35:16;101918.40;;;-0.80
70831;BMP180;58451;51.550;7.208;2023-02-15T07:36:50;101920.00;;;-0.70
70831;BMP180;58451;51.550;7.208;2023-02-15T07:38:25;101923.00;;;-0.68
70831;BMP180;58451;51.550;7.208;2023-02-15T07:39:57;101919.60;;;-0.60
70831;BMP180;58451;51.550;7.208;2023-02-15T07:41:29;101915.20;;;-0.58
70831;BMP180;58451;51.550;7.208;2023-02-15T07:43:01;101911.80;;;-0.50
70831;BMP180;58451;51.550;7.208;2023-02-15T07:44:32;101905.60;;;-0.50
70831;BMP180;58451;51.550;7.208;2023-02-15T07:46:09;101910.80;;;-0.40
70831;BMP180;58451;51.550;7.208;2023-02-15T07:47:41;101900.80;;;-0.36
70831;BMP180;58451;51.550;7.208;2023-02-15T07:49:13;101899.40;;;-0.30
70831;BMP180;58451;51.550;7.208;2023-02-15T07:50:46;101895.40;;;-0.20
70831;BMP180;58451;51.550;7.208;2023-02-15T07:52:20;101892.60;;;-0.20
70831;BMP180;58451;51.550;7.208;2023-02-15T07:53:52;101894.40;;;-0.10
70831;BMP180;58451;51.550;7.208;2023-02-15T07:55:24;101895.00;;;-0.10
70831;BMP180;58451;51.550;7.208;2023-02-15T07:56:56;101892.40;;;0.00
70831;BMP180;58451;51.550;7.208;2023-02-15T07:58:33;101887.40;;;0.08
70831;BMP180;58451;51.550;7.208;2023-02-15T08:00:23;101880.40;;;0.12
70831;BMP180;58451;51.550;7.208;2023-02-15T08:01:58;101883.00;;;0.20
70831;BMP180;58451;51.550;7.208;2023-02-15T08:03:30;101883.40;;;0.30
70831;BMP180;58451;51.550;7.208;2023-02-15T08:05:02;101878.60;;;0.38
70831;BMP180;58451;51.550;7.208;2023-02-15T08:06:35;101881.20;;;0.44
70831;BMP180;58451;51.550;7.208;2023-02-15T08:08:09;101869.40;;;0.50
70831;BMP180;58451;51.550;7.208;2023-02-15T08:10:00;101876.00;;;0.60
70831;BMP180;58451;51.550;7.208;2023-02-15T08:11:38;101876.00;;;0.70
70831;BMP180;58451;51.550;7.208;2023-02-15T08:13:11;101873.40;;;0.80
70831;BMP180;58451;51.550;7.208;2023-02-15T08:14:43;101866.40;;;0.86
70831;BMP180;58451;51.550;7.208;2023-02-15T08:16:14;101863.00;;;0.90
70831;BMP180;58451;51.550;7.208;2023-02-15T08:17:46;101869.60;;;1.00
70831;BMP180;58451;51.550;7.208;2023-02-15T08:19:25;101860.60;;;1.10
70831;BMP180;58451;51.550;7.208;2023-02-15T08:20:57;101867.60;;;1.20
70831;BMP180;58451;51.550;7.208;2023-02-15T08:22:29;101866.80;;;1.30
70831;BMP180;58451;51.550;7.208;2023-02-15T08:24:03;101866.40;;;1.40
70831;BMP180;58451;51.550;7.208;2023-02-15T08:25:35;101854.40;;;1.48
70831;BMP180;58451;51.550;7.208;2023-02-15T08:27:10;101861.20;;;1.60
70831;BMP180;58451;51.550;7.208;2023-02-15T08:28:42;101852.40;;;1.64
70831;BMP180;58451;51.550;7.208;2023-02-15T08:30:14;101852.80;;;1.76
70831;BMP180;58451;51.550;7.208;2023-02-15T08:31:46;101855.00;;;1.88
70831;BMP180;58451;51.550;7.208;2023-02-15T08:33:18;101857.40;;;1.94
70831;BMP180;58451;51.550;7.208;2023-02-15T08:34:50;101856.00;;;2.02
70831;BMP180;58451;51.550;7.208;2023-02-15T08:36:29;101860.60;;;2.12
70831;BMP180;58451;51.550;7.208;2023-02-15T08:38:01;101863.80;;;2.26
70831;BMP180;58451;51.550;7.208;2023-02-15T08:39:33;101860.80;;;2.40
70831;BMP180;58451;51.550;7.208;2023-02-15T08:42:51;101859.00;;;2.60
70831;BMP180;58451;51.550;7.208;2023-02-15T08:44:23;101860.60;;;2.70
70831;BMP180;58451;51.550;7.208;2023-02-15T08:45:55;101853.60;;;2.80
70831;BMP180;58451;51.550;7.208;2023-02-15T08:47:27;101852.00;;;2.90
70831;BMP180;58451;51.550;7.208;2023-02-15T08:49:00;101847.20;;;3.00
70831;BMP180;58451;51.550;7.208;2023-02-15T08:50:31;101851.00;;;3.10
70831;BMP180;58451;51.550;7.208;2023-02-15T08:52:04;101848.40;;;3.20
70831;BMP180;58451;51.550;7.208;2023-02-15T08:53:38;101846.80;;;3.30
70831;BMP180;58451;51.550;7.208;2023-02-15T08:55:10;101849.80;;;3.46
70831;BMP180;58451;51.550;7.208;2023-02-15T08:56:44;101848.00;;;3.60
70831;BMP180;58451;51.550;7.208;2023-02-15T08:58:16;101844.80;;;3.70
70831;BMP180;58451;51.550;7.208;2023-02-15T08:59:47;101842.80;;;3.80
70831;BMP180;58451;51.550;7.208;2023-02-15T09:01:24;101843.80;;;3.90
70831;BMP180;58451;51.550;7.208;2023-02-15T09:02:56;101844.00;;;4.00
70831;BMP180;58451;51.550;7.208;2023-02-15T09:04:28;101842.20;;;4.16
70831;BMP180;58451;51.550;7.208;2023-02-15T09:06:01;101841.40;;;4.22
70831;BMP180;58451;51.550;7.208;2023-02-15T09:07:33;101840.80;;;4.38
70831;BMP180;58451;51.550;7.208;2023-02-15T09:09:06;101836.20;;;4.48
70831;BMP180;58451;51.550;7.208;2023-02-15T09:10:38;101836.00;;;4.60
70831;BMP180;58451;51.550;7.208;2023-02-15T09:12:10;101832.40;;;4.70
70831;BMP180;58451;51.550;7.208;2023-02-15T09:13:42;101831.00;;;4.80
70831;BMP180;58451;51.550;7.208;2023-02-15T09:15:14;101832.20;;;4.90
70831;BMP180;58451;51.550;7.208;2023-02-15T09:16:47;101833.20;;;5.00
70831;BMP180;58451;51.550;7.208;2023-02-15T09:18:20;101829.60;;;5.10
70831;BMP180;58451;51.550;7.208;2023-02-15T09:19:52;101832.00;;;5.20
70831;BMP180;58451;51.550;7.208;2023-02-15T09:21:25;101826.40;;;5.26
70831;BMP180;58451;51.550;7.208;2023-02-15T09:22:57;101835.00;;;5.36
70831;BMP180;58451;51.550;7.208;2023-02-15T09:24:32;101838.00;;;5.40
70831;BMP180;58451;51.550;7.208;2023-02-15T09:26:12;101829.20;;;5.50
70831;BMP180;58451;51.550;7.208;2023-02-15T09:27:44;101827.60;;;5.60
70831;BMP180;58451;51.550;7.208;2023-02-15T09:29:18;101825.00;;;5.70
70831;BMP180;58451;51.550;7.208;2023-02-15T09:30:49;101829.20;;;5.72
70831;BMP180;58451;51.550;7.208;2023-02-15T09:32:21;101829.20;;;5.80
70831;BMP180;58451;51.550;7.208;2023-02-15T09:33:54;101827.20;;;5.90
70831;BMP180;58451;51.550;7.208;2023-02-15T09:35:26;101832.20;;;6.00